To NAV CANADA Home Page Login to a new session Search on AWWS site Feedback and Comments Disclaimer Vers la page française équivalente Tips FAQ What's new on the site To the Forecasts and Observations / NOTAM section To "File a Flight Plan" website Publications and other links Update of the User's profile FIC Telephone Numbers My Weather Data Folder Route Weather Data Regional Weather Data Local Weather Data To the Forecasts and Observations / NOTAM section
Request Generated 07/07/2015 at 15:33:12 UTC . Weather information available at that time is displayed.

METAR/TAF

CLYDE RIVER/NU    (show WxCam)

METAR CYCY 071500Z 11008KT 25SM OVC130 03/01 A3003 RMK AC8 SLP172=
METAR CYCY 071400Z 10010KT 25SM OVC140 04/01 A3002 RMK AC8
5.3/1.5/0/NIL SLP169=
METAR CYCY 071300Z AUTO 08003KT 9SM FEW140 05/01 A3003 RMK SLP172=

TAF CYCY 071238Z 0713/0801 10008KT P6SM SCT140 BKN240
RMK FCST BASED ON AUTO OBS. NXT FCST BY 071900Z=
Your time UTC time
Weather data provided by Environment Canada and NAV CANADA